Time;durP1;ratioP1;P1;durP2;ratioP2;P2;SDS_P1;SDS_P2;PMS_P1;PMS_P2;Temp;Humidity;BMP_temperature;BMP_pressure;BME280_temperature;BME280_humidity;BME280_pressure;Samples;Min_cycle;Max_cycle;Signal;HPM_P1;HPM_P2
2022/04/12 00:01:08;;;;;;;13.32;9.88;;;;;;;5.93;89.27;101371.97;5055501;28;20674;-68
2022/04/12 00:03:33;;;;;;;16.80;10.65;;;;;;;5.93;89.28;101376.34;5056416;28;20719;-68
2022/04/12 00:05:59;;;;;;;17.80;10.93;;;;;;;5.92;89.73;101371.97;5055746;28;20033;-68
2022/04/12 00:08:24;;;;;;;14.35;10.43;;;;;;;5.87;89.23;101371.22;5056211;28;20031;-69
2022/04/12 00:10:50;;;;;;;12.23;10.02;;;;;;;5.85;89.60;101371.25;5055651;28;20029;-68
2022/04/12 00:13:18;;;;;;;16.90;11.18;;;;;;;5.83;89.29;101366.00;5053591;28;20040;-68
2022/04/12 00:15:44;;;;;;;15.23;11.40;;;;;;;5.80;89.18;101360.81;5055786;28;20063;-68
2022/04/12 00:20:54;;;;;;;18.23;12.02;;;;;;;5.74;89.22;101365.28;5057011;28;20044;-68
2022/04/12 00:23:19;;;;;;;16.40;11.80;;;;;;;5.70;89.39;101352.22;5055797;28;20028;-67
2022/04/12 00:25:45;;;;;;;15.50;10.82;;;;;;;5.68;89.56;101351.34;5055320;28;20452;-68
2022/04/12 00:28:12;;;;;;;17.08;11.07;;;;;;;5.67;89.63;101364.53;5054395;28;20032;-67
2022/04/12 00:30:38;;;;;;;16.67;11.52;;;;;;;5.67;89.61;101364.53;5052492;28;20043;-68
2022/04/12 00:33:04;;;;;;;17.85;12.35;;;;;;;5.66;89.73;101354.94;5052634;28;21028;-68
2022/04/12 00:35:29;;;;;;;15.70;12.00;;;;;;;5.65;89.80;101346.16;5037423;28;20119;-68
2022/04/12 00:37:55;;;;;;;17.90;11.63;;;;;;;5.64;89.71;101343.56;5055838;28;20509;-67
2022/04/12 00:40:24;;;;;;;17.38;11.48;;;;;;;5.63;89.98;101337.44;5056897;28;20033;-68
2022/04/12 00:42:50;;;;;;;19.60;12.55;;;;;;;5.62;89.39;101329.59;5054574;28;20108;-68
2022/04/12 00:45:16;;;;;;;19.08;12.48;;;;;;;5.59;89.76;101325.25;5055405;28;20042;-68
2022/04/12 00:47:42;;;;;;;18.10;12.43;;;;;;;5.60;89.54;101313.00;5033525;28;20497;-68
2022/04/12 00:50:09;;;;;;;20.55;12.60;;;;;;;5.55;89.54;101316.56;5024278;28;20395;-67
2022/04/12 00:52:36;;;;;;;17.25;13.00;;;;;;;5.53;89.95;101309.59;5053868;28;20200;-68
2022/04/12 00:55:04;;;;;;;18.73;13.18;;;;;;;5.49;89.64;101307.94;5054070;28;20529;-68
2022/04/12 00:57:31;;;;;;;20.13;13.10;;;;;;;5.46;89.49;101308.84;5035776;28;20514;-68
2022/04/12 00:59:59;;;;;;;17.55;12.73;;;;;;;5.41;89.35;101301.00;5035818;28;20100;-68
2022/04/12 01:02:24;;;;;;;17.20;12.20;;;;;;;5.39;89.85;101310.69;5052973;28;20032;-67
2022/04/12 01:04:50;;;;;;;19.40;12.75;;;;;;;5.34;89.38;101299.38;5036526;28;20236;-67
2022/04/12 01:07:15;;;;;;;19.80;12.73;;;;;;;5.32;89.73;101311.69;5054221;28;20483;-68
2022/04/12 01:09:41;;;;;;;17.25;12.40;;;;;;;5.30;89.69;101308.22;5053845;28;20108;-68
2022/04/12 01:12:09;;;;;;;18.52;13.50;;;;;;;5.29;89.86;101307.34;5024366;28;20029;-67
2022/04/12 01:14:35;;;;;;;21.92;13.85;;;;;;;5.29;89.89;101301.25;5036040;28;20032;-68
2022/04/12 01:17:05;;;;;;;18.92;13.55;;;;;;;5.27;89.59;101303.88;5053792;28;20086;-68
2022/04/12 01:19:30;;;;;;;17.30;13.23;;;;;;;5.24;89.82;101303.06;5040937;28;20048;-68
2022/04/12 01:22:06;;;;;;;19.67;13.88;;;;;;;5.21;90.34;101296.09;5053692;28;20804;-68
2022/04/12 01:24:32;;;;;;;19.42;13.85;;;;;;;5.20;90.05;101290.88;5035804;28;20036;-68
2022/04/12 01:26:58;;;;;;;17.73;12.88;;;;;;;5.19;90.54;101276.88;5036511;28;20056;-68
2022/04/12 01:29:25;;;;;;;21.45;13.65;;;;;;;5.16;90.40;101274.28;5054196;28;20227;-68
2022/04/12 01:31:50;;;;;;;20.75;13.43;;;;;;;5.13;90.33;101275.22;5054563;28;20456;-68
2022/04/12 01:34:16;;;;;;;19.40;13.13;;;;;;;5.10;90.33;101271.75;5034882;28;20037;-67
2022/04/12 01:36:41;;;;;;;19.65;13.82;;;;;;;5.06;90.61;101270.09;5054232;28;20043;-68
2022/04/12 01:39:07;;;;;;;18.20;12.88;;;;;;;5.02;90.30;101262.25;5054215;28;20035;-67
2022/04/12 01:41:32;;;;;;;20.58;13.57;;;;;;;5.00;90.56;101264.03;5035078;28;20816;-68
2022/04/12 01:43:58;;;;;;;20.13;13.32;;;;;;;4.98;90.35;101255.34;5052950;28;20030;-68
2022/04/12 01:46:23;;;;;;;20.38;14.20;;;;;;;4.96;90.83;101259.72;5053735;28;20485;-67
2022/04/12 01:48:49;;;;;;;17.73;13.15;;;;;;;4.94;90.67;101266.75;5054504;28;20120;-67
2022/04/12 01:51:15;;;;;;;20.95;14.20;;;;;;;4.92;90.77;101263.31;5035710;28;20036;-67
2022/04/12 01:53:44;;;;;;;19.33;13.20;;;;;;;4.89;90.74;101266.84;5036218;28;20056;-67
2022/04/12 01:56:10;;;;;;;20.20;13.43;;;;;;;4.89;90.89;101268.56;5053801;28;20052;-68
2022/04/12 01:58:36;;;;;;;23.17;14.77;;;;;;;4.89;90.52;101268.56;5054031;28;20032;-68
2022/04/12 02:01:03;;;;;;;19.45;13.73;;;;;;;4.88;91.08;101275.59;5052450;28;20331;-68
2022/04/12 02:03:28;;;;;;;20.05;14.07;;;;;;;4.89;91.11;101276.44;5053451;28;20038;-68
2022/04/12 02:05:57;;;;;;;21.33;14.05;;;;;;;4.88;90.97;101274.72;5052409;28;20390;-67
2022/04/12 02:08:22;;;;;;;19.90;14.15;;;;;;;4.85;90.88;101270.38;5054296;28;20346;-67
2022/04/12 02:10:48;;;;;;;21.67;14.35;;;;;;;4.85;91.21;101282.66;5037092;28;20063;-67
2022/04/12 02:13:13;;;;;;;21.42;14.60;;;;;;;4.82;91.72;101288.81;5054073;28;20035;-68
2022/04/12 02:15:39;;;;;;;23.63;15.80;;;;;;;4.79;91.51;101285.34;5055366;28;20496;-68
2022/04/12 02:18:04;;;;;;;23.92;15.13;;;;;;;4.77;91.77;101293.25;5050452;28;20417;-68
2022/04/12 02:20:30;;;;;;;23.48;14.93;;;;;;;4.76;92.23;101296.75;5036415;28;20037;-68
2022/04/12 02:22:56;;;;;;;21.05;14.98;;;;;;;4.74;92.46;101295.94;5054999;28;20695;-68
2022/04/12 02:25:21;;;;;;;22.45;15.82;;;;;;;4.71;92.17;101294.22;5055376;28;20168;-68
2022/04/12 02:27:47;;;;;;;25.25;16.08;;;;;;;4.69;92.08;101302.97;5054387;28;20032;-68
2022/04/12 02:30:13;;;;;;;21.10;14.77;;;;;;;4.67;92.71;101303.00;5055083;28;20172;-68
2022/04/12 02:32:42;;;;;;;23.23;15.43;;;;;;;4.65;92.74;101298.66;5054278;28;20036;-68
2022/04/12 02:35:08;;;;;;;24.45;15.68;;;;;;;4.63;92.70;101288.19;5050302;28;20159;-68
2022/04/12 02:37:34;;;;;;;20.60;14.75;;;;;;;4.64;93.32;101287.31;5052981;28;20047;-68
2022/04/12 02:39:59;;;;;;;24.48;15.27;;;;;;;4.63;92.87;101288.19;5052079;28;20029;-68
2022/04/12 02:42:25;;;;;;;22.50;15.02;;;;;;;4.64;92.82;101287.31;5054946;28;20036;-68
2022/04/12 02:44:51;;;;;;;21.92;14.70;;;;;;;4.62;92.61;101291.69;5053149;28;20440;-67
2022/04/12 02:47:16;;;;;;;23.05;14.65;;;;;;;4.61;92.53;101282.97;5052793;28;20158;-68
2022/04/12 02:49:42;;;;;;;18.63;14.88;;;;;;;4.61;92.52;101292.59;5051235;28;20390;-68
2022/04/12 02:52:10;;;;;;;21.25;14.32;;;;;;;4.59;92.78;101287.34;5034696;28;20085;-69
2022/04/12 02:54:35;;;;;;;21.67;15.05;;;;;;;4.58;92.46;101284.78;5052488;28;20488;-68
2022/04/12 02:57:01;;;;;;;22.15;14.65;;;;;;;4.59;93.14;101276.84;5052013;28;20039;-68
2022/04/12 02:59:27;;;;;;;25.67;15.23;;;;;;;4.57;93.15;101265.53;5052899;28;20036;-69
2022/04/12 03:01:52;;;;;;;23.40;15.32;;;;;;;4.54;92.88;101265.59;5053478;28;20059;-68
2022/04/12 03:04:18;;;;;;;22.77;14.13;;;;;;;4.52;92.47;101263.88;5034908;28;20033;-68
2022/04/12 03:06:44;;;;;;;20.50;15.00;;;;;;;4.49;92.64;101262.16;5051820;28;20525;-69
2022/04/12 03:09:09;;;;;;;20.55;15.18;;;;;;;4.48;92.73;101261.28;5054151;28;20037;-68
2022/04/12 03:11:35;;;;;;;20.08;14.73;;;;;;;4.48;92.88;101274.38;5052950;28;20037;-69
2022/04/12 03:14:01;;;;;;;24.95;15.20;;;;;;;4.45;92.86;101269.19;5053430;28;20032;-67
2022/04/12 03:16:27;;;;;;;19.92;14.43;;;;;;;4.44;92.71;101275.31;5051576;28;20032;-67
2022/04/12 03:18:53;;;;;;;22.27;15.25;;;;;;;4.42;92.58;101263.97;5053644;28;20094;-67
2022/04/12 03:21:18;;;;;;;22.00;15.23;;;;;;;4.42;92.89;101266.59;5052238;28;20407;-67
2022/04/12 03:23:44;;;;;;;24.80;16.20;;;;;;;4.41;92.92;101262.25;5020358;28;20063;-67
2022/04/12 03:26:09;;;;;;;19.80;14.80;;;;;;;4.41;92.63;101253.53;5034132;28;20028;-67
2022/04/12 03:28:35;;;;;;;20.55;15.10;;;;;;;4.39;93.17;101260.53;5053263;28;20067;-68
2022/04/12 03:31:01;;;;;;;21.83;14.93;;;;;;;4.38;93.36;101258.78;5052408;28;22123;-67
2022/04/12 03:33:27;;;;;;;19.08;13.93;;;;;;;4.38;92.90;101262.28;5051812;28;20063;-68
2022/04/12 03:35:52;;;;;;;19.95;14.10;;;;;;;4.37;93.06;101250.06;5034036;28;20562;-68
2022/04/12 03:38:18;;;;;;;21.30;14.43;;;;;;;4.39;92.73;101252.66;5034639;28;20033;-68
2022/04/12 03:40:46;;;;;;;24.73;15.73;;;;;;;4.41;93.19;101258.78;5052631;28;20033;-67
2022/04/12 03:43:12;;;;;;;25.30;15.40;;;;;;;4.41;93.12;101251.75;5052080;28;20630;-68
2022/04/12 03:45:37;;;;;;;25.50;14.85;;;;;;;4.42;92.70;101244.78;5052501;28;20035;-68
2022/04/12 03:48:04;;;;;;;22.23;14.88;;;;;;;4.42;92.64;101245.63;5034543;28;20031;-67
2022/04/12 03:50:31;;;;;;;23.92;15.15;;;;;;;4.43;92.73;101231.66;5053400;28;20111;-68
2022/04/12 03:52:56;;;;;;;24.23;15.68;;;;;;;4.43;92.87;101236.88;5052322;28;21390;-68
2022/04/12 03:55:31;;;;;;;22.98;15.25;;;;;;;4.44;93.26;101230.75;5018289;28;20044;-68
2022/04/12 03:58:04;;;;;;;24.15;15.35;;;;;;;4.47;92.83;101241.19;5054302;28;20102;-67
2022/04/12 04:00:30;;;;;;;25.08;15.80;;;;;;;4.49;93.19;101222.81;5035509;28;20029;-67
2022/04/12 04:02:56;;;;;;;21.17;14.95;;;;;;;4.49;93.16;101226.28;5055434;28;20048;-68
2022/04/12 04:05:22;;;;;;;22.23;15.30;;;;;;;4.51;92.95;101228.06;5052313;28;20040;-68
2022/04/12 04:07:48;;;;;;;19.90;14.82;;;;;;;4.52;92.77;101227.16;5053346;28;20033;-68
2022/04/12 04:10:14;;;;;;;18.65;14.57;;;;;;;4.53;92.70;101223.63;5056624;28;20157;-68
2022/04/12 04:12:39;;;;;;;20.95;15.60;;;;;;;4.53;92.33;101234.13;5057010;28;20051;-68
2022/04/12 04:15:11;;;;;;;24.70;14.70;;;;;;;4.53;92.82;101232.34;5056779;28;20052;-68
2022/04/12 04:17:40;;;;;;;15.17;11.77;;;;;;;4.54;92.19;101222.75;5040093;28;20232;-69
2022/04/12 04:20:06;;;;;;;22.50;14.80;;;;;;;4.54;92.11;101233.25;5058544;28;20682;-69
2022/04/12 04:22:31;;;;;;;20.90;15.50;;;;;;;4.53;92.12;101227.09;5057525;28;20040;-68
2022/04/12 04:24:57;;;;;;;22.15;15.27;;;;;;;4.55;92.55;101227.09;5056731;28;20040;-67
2022/04/12 04:27:27;;;;;;;22.45;14.75;;;;;;;4.54;92.66;101223.63;5054590;28;20037;-68
2022/04/12 04:29:55;;;;;;;23.80;15.73;;;;;;;4.54;92.26;101217.50;5057544;28;21041;-68
2022/04/12 04:32:22;;;;;;;22.73;14.85;;;;;;;4.54;91.99;101218.38;5056520;28;20043;-68
2022/04/12 04:34:47;;;;;;;18.50;14.10;;;;;;;4.56;92.13;101216.59;5056974;28;20032;-68
2022/04/12 04:37:13;;;;;;;18.95;14.15;;;;;;;4.56;92.39;101215.72;5056427;28;20444;-68
2022/04/12 04:39:38;;;;;;;19.27;13.93;;;;;;;4.58;92.53;101211.34;5024366;28;20078;-67
2022/04/12 04:42:05;;;;;;;18.92;14.77;;;;;;;4.61;91.78;101206.91;5057127;28;20081;-67
2022/04/12 04:44:31;;;;;;;21.92;14.68;;;;;;;4.63;92.33;101201.63;5054743;28;20032;-68
2022/04/12 04:46:57;;;;;;;20.05;14.98;;;;;;;4.64;91.96;101205.13;5056768;28;20032;-68
2022/04/12 04:49:22;;;;;;;21.85;15.05;;;;;;;4.64;91.98;101198.13;5043185;28;20552;-68
2022/04/12 04:51:48;;;;;;;20.95;15.35;;;;;;;4.64;92.07;101197.25;5055733;28;20106;-68
2022/04/12 04:54:13;;;;;;;24.17;14.93;;;;;;;4.66;91.83;101205.97;5037617;28;20052;-68
2022/04/12 04:56:39;;;;;;;22.35;15.50;;;;;;;4.68;91.67;101209.44;5056760;28;20047;-68
2022/04/12 04:59:04;;;;;;;23.77;14.95;;;;;;;4.69;92.32;101201.53;5056499;28;20066;-68
2022/04/12 05:01:30;;;;;;;20.08;14.82;;;;;;;4.72;91.58;101204.13;5055182;28;20034;-68
2022/04/12 05:03:55;;;;;;;21.05;15.13;;;;;;;4.75;91.67;101197.97;5056351;28;20033;-69
2022/04/12 05:06:21;;;;;;;19.30;14.10;;;;;;;4.75;92.08;101205.84;5035961;28;20115;-68
2022/04/12 05:08:47;;;;;;;22.00;15.07;;;;;;;4.79;91.65;101197.00;5037392;28;20124;-68
2022/04/12 05:11:12;;;;;;;23.83;15.73;;;;;;;4.82;91.59;101201.34;5035999;28;20448;-68
2022/04/12 05:13:38;;;;;;;20.73;14.75;;;;;;;4.84;91.75;101194.31;5035059;28;20086;-68
2022/04/12 05:16:03;;;;;;;19.48;14.43;;;;;;;4.86;91.22;101197.78;5036958;28;20043;-68
2022/04/12 05:18:30;;;;;;;23.33;14.48;;;;;;;4.87;91.48;101199.53;5054129;28;20040;-68
2022/04/12 05:20:55;;;;;;;22.20;14.73;;;;;;;4.89;91.61;101200.34;5053145;28;20041;-68
2022/04/12 05:23:21;;;;;;;19.42;14.32;;;;;;;4.91;91.63;101195.09;5056855;28;20055;-68
2022/04/12 05:25:46;;;;;;;22.02;14.55;;;;;;;4.93;92.50;101199.44;5050986;28;20036;-68
2022/04/12 05:28:12;;;;;;;19.90;14.52;;;;;;;4.95;91.98;101202.88;5050195;28;20098;-69
2022/04/12 05:30:37;;;;;;;19.17;14.70;;;;;;;4.99;92.34;101196.72;5052279;28;20434;-69
2022/04/12 05:33:03;;;;;;;21.88;13.90;;;;;;;5.04;92.35;101186.13;5055950;28;20035;-66
2022/04/12 05:35:28;;;;;;;22.85;15.57;;;;;;;5.08;92.36;101176.44;5024567;28;20044;-69
2022/04/12 05:37:54;;;;;;;22.33;13.93;;;;;;;5.11;92.51;101177.25;5036454;28;20033;-69
2022/04/12 05:40:21;;;;;;;18.88;13.98;;;;;;;5.15;92.26;101184.19;5034932;28;20368;-69
2022/04/12 05:42:47;;;;;;;19.05;14.13;;;;;;;5.21;92.24;101183.22;5036049;28;20084;-68
2022/04/12 05:45:13;;;;;;;19.17;13.82;;;;;;;5.25;92.07;101179.66;5008649;28;20064;-71
2022/04/12 05:47:40;;;;;;;20.63;13.98;;;;;;;5.30;92.27;101180.41;5036887;28;20043;-70
2022/04/12 05:50:06;;;;;;;21.30;14.35;;;;;;;5.33;92.01;101186.53;5037501;28;20673;-70
2022/04/12 05:52:32;;;;;;;18.30;14.02;;;;;;;5.38;91.82;101192.53;5055066;28;20036;-71
2022/04/12 05:54:58;;;;;;;19.88;14.25;;;;;;;5.42;92.06;101187.22;5036890;28;20075;-71
2022/04/12 05:57:23;;;;;;;18.25;13.80;;;;;;;5.48;91.80;101187.97;5054704;28;20123;-71
2022/04/12 05:59:49;;;;;;;16.73;12.80;;;;;;;5.51;91.52;101188.78;5036472;28;20059;-70
2022/04/12 06:02:15;;;;;;;17.77;13.38;;;;;;;5.56;91.56;101189.56;5055854;28;20042;-71
2022/04/12 06:04:40;;;;;;;17.27;13.15;;;;;;;5.61;91.14;101191.25;5025036;28;20024;-71
2022/04/12 06:07:06;;;;;;;19.10;13.32;;;;;;;5.64;91.29;101196.44;5054842;28;20037;-69
2022/04/12 06:09:31;;;;;;;17.85;13.57;;;;;;;5.68;90.70;101192.88;5024083;28;20149;-69
2022/04/12 06:11:57;;;;;;;17.73;13.45;;;;;;;5.69;90.73;101200.72;5020551;28;20059;-70
2022/04/12 06:14:22;;;;;;;20.83;13.80;;;;;;;5.71;90.66;101195.44;5037753;28;20032;-70
2022/04/12 06:16:47;;;;;;;18.02;13.07;;;;;;;5.73;90.55;101196.28;5056105;28;20036;-69
2022/04/12 06:19:13;;;;;;;20.98;13.50;;;;;;;5.74;90.83;101205.00;5034457;28;20547;-68
2022/04/12 06:21:39;;;;;;;20.75;13.45;;;;;;;5.75;90.65;101205.00;5053847;28;20054;-68
2022/04/12 06:24:04;;;;;;;20.98;13.48;;;;;;;5.77;90.35;101208.44;5054143;28;20379;-68
2022/04/12 06:26:30;;;;;;;19.42;13.38;;;;;;;5.78;90.50;101204.91;5053626;28;20060;-69
2022/04/12 06:28:55;;;;;;;17.77;13.95;;;;;;;5.83;90.81;101205.69;5054560;28;20029;-69
2022/04/12 06:31:21;;;;;;;18.58;14.07;;;;;;;5.86;90.79;101202.16;5053835;28;20563;-71
2022/04/12 06:33:47;;;;;;;17.33;13.65;;;;;;;5.89;90.08;101211.75;5037410;28;20043;-71
2022/04/12 06:36:12;;;;;;;20.45;13.52;;;;;;;5.91;89.99;101199.44;5056003;28;20030;-72
2022/04/12 06:38:38;;;;;;;20.63;14.50;;;;;;;5.94;89.81;101199.38;5035901;28;20033;-71
2022/04/12 06:41:03;;;;;;;20.65;14.02;;;;;;;5.96;89.79;101194.94;5053672;28;20036;-71
2022/04/12 06:43:29;;;;;;;20.95;13.45;;;;;;;6.00;90.32;101194.00;5053484;28;20075;-71
2022/04/12 06:45:54;;;;;;;18.38;13.73;;;;;;;6.05;90.51;101202.66;5053256;28;20037;-72
2022/04/12 06:48:20;;;;;;;19.85;13.75;;;;;;;6.12;90.60;101203.41;5056168;28;20077;-71
2022/04/12 06:50:45;;;;;;;19.45;13.70;;;;;;;6.19;90.46;101206.75;5054124;28;20032;-71
2022/04/12 06:53:11;;;;;;;20.00;14.23;;;;;;;6.24;90.40;101205.78;5054523;28;20563;-74
2022/04/12 06:55:37;;;;;;;21.60;13.40;;;;;;;6.37;90.40;101216.03;5035734;28;20656;-75
2022/04/12 06:58:02;;;;;;;19.85;14.07;;;;;;;6.47;90.17;101220.19;5057546;28;20044;-74
2022/04/12 07:00:28;;;;;;;18.48;13.20;;;;;;;6.57;89.81;101225.22;5038530;28;20033;-74
2022/04/12 07:02:54;;;;;;;17.40;12.38;;;;;;;6.68;89.42;101227.63;5055585;28;20036;-74
2022/04/12 07:05:19;;;;;;;19.80;13.20;;;;;;;6.80;89.56;101235.25;5022242;28;20033;-75
2022/04/12 07:07:45;;;;;;;17.38;12.43;;;;;;;6.93;89.18;101236.69;5052704;28;20101;-73
2022/04/12 07:10:16;;;;;;;19.50;13.15;;;;;;;7.05;88.79;101234.66;5051260;28;20475;-72
2022/04/12 07:12:42;;;;;;;16.50;12.13;;;;;;;7.19;88.46;101229.91;5050940;28;20032;-72
2022/04/12 07:15:08;;;;;;;15.38;11.85;;;;;;;7.32;88.18;101226.97;5052253;28;20028;-71
2022/04/12 07:17:34;;;;;;;18.10;12.02;;;;;;;7.42;87.62;101209.16;5038601;28;20068;-71
2022/04/12 07:20:00;;;;;;;16.05;12.10;;;;;;;7.51;87.19;101218.59;5054971;28;20629;-71
2022/04/12 07:22:25;;;;;;;15.45;11.90;;;;;;;7.62;86.68;101211.25;5037654;28;20132;-71
2022/04/12 07:24:51;;;;;;;18.67;12.10;;;;;;;7.72;86.12;101211.88;5035049;28;20032;-70
2022/04/12 07:27:16;;;;;;;27.60;12.70;;;;;;;7.81;86.00;101209.00;5051699;28;20036;-72
2022/04/12 07:29:42;;;;;;;17.55;12.73;;;;;;;7.88;85.96;101197.38;5036920;28;20120;-73
2022/04/12 07:32:08;;;;;;;15.52;11.93;;;;;;;7.98;85.02;101199.72;5020920;28;20402;-73
2022/04/12 07:34:33;;;;;;;16.38;12.82;;;;;;;8.07;85.66;101196.81;5052539;28;20105;-74
2022/04/12 07:36:59;;;;;;;12.68;10.90;;;;;;;8.16;84.76;101200.97;5032535;28;20044;-72
2022/04/12 07:39:24;;;;;;;14.07;11.07;;;;;;;8.27;84.61;101214.69;5029742;28;20033;-73
2022/04/12 07:41:51;;;;;;;16.95;11.43;;;;;;;8.34;84.53;101211.88;5034486;28;20036;-72
2022/04/12 07:44:18;;;;;;;23.05;11.85;;;;;;;8.36;84.68;101213.56;5038085;28;20391;-74
2022/04/12 07:46:44;;;;;;;19.92;11.48;;;;;;;8.41;83.95;101203.72;5039862;28;20039;-73
2022/04/12 07:49:10;;;;;;;26.63;11.57;;;;;;;8.51;83.72;101201.69;5039184;28;20039;-71
2022/04/12 07:51:36;;;;;;;16.65;11.60;;;;;;;8.61;83.71;101194.34;5039264;28;20024;-73
2022/04/12 07:54:03;;;;;;;29.45;11.82;;;;;;;8.70;83.07;101193.19;5039533;28;20029;-72
2022/04/12 07:56:32;;;;;;;27.70;11.65;;;;;;;8.78;82.78;101191.16;5056151;28;20048;-74
2022/04/12 07:58:58;;;;;;;33.28;10.90;;;;;;;8.84;82.06;101176.94;5037236;28;20141;-72
2022/04/12 08:01:24;;;;;;;14.63;10.70;;;;;;;8.95;82.33;101181.84;5058518;28;20478;-73
2022/04/12 08:03:49;;;;;;;14.55;10.85;;;;;;;9.08;82.29;101171.72;5055733;28;20044;-71
2022/04/12 08:06:15;;;;;;;15.70;11.25;;;;;;;9.22;81.95;101169.47;5053834;28;20029;-70
2022/04/12 08:08:41;;;;;;;14.32;10.63;;;;;;;9.36;81.71;101162.84;5054434;28;20033;-70
2022/04/12 08:11:07;;;;;;;14.05;10.55;;;;;;;9.48;80.90;101157.13;5055499;28;21554;-70
2022/04/12 08:13:33;;;;;;;13.98;11.23;;;;;;;9.58;80.75;101167.38;5056023;28;20036;-71
2022/04/12 08:15:58;;;;;;;17.88;10.77;;;;;;;9.67;80.51;101150.31;5037270;28;20643;-71
2022/04/12 08:18:24;;;;;;;15.95;10.43;;;;;;;9.76;79.80;101150.81;5036632;28;20386;-71
2022/04/12 08:20:50;;;;;;;14.75;10.43;;;;;;;9.88;79.57;101149.53;5053618;28;20064;-70
2022/04/12 08:23:16;;;;;;;16.60;10.25;;;;;;;10.02;79.49;101145.50;5022341;28;20683;-72
2022/04/12 08:25:42;;;;;;;12.88;10.23;;;;;;;10.11;78.91;101150.41;5025633;28;20025;-71
2022/04/12 08:28:09;;;;;;;11.90;9.82;;;;;;;10.19;79.06;101150.13;5055084;28;20040;-70
2022/04/12 08:30:35;;;;;;;12.50;10.00;;;;;;;10.29;78.73;101158.53;5024931;28;20024;-72
2022/04/12 08:33:02;;;;;;;15.57;10.38;;;;;;;10.38;78.70;101152.91;5037375;28;20440;-70
2022/04/12 08:35:28;;;;;;;12.95;10.27;;;;;;;10.53;78.48;101158.53;5037700;28;20475;-70
2022/04/12 08:37:53;;;;;;;15.25;10.40;;;;;;;10.64;77.68;101148.38;5037126;28;20123;-72
2022/04/12 08:40:19;;;;;;;11.48;10.10;;;;;;;10.76;77.53;101159.38;5055865;28;20024;-70
2022/04/12 08:42:45;;;;;;;15.20;10.40;;;;;;;10.91;77.13;101152.59;5037245;28;20090;-71
2022/04/12 08:45:11;;;;;;;14.43;10.18;;;;;;;11.07;77.08;101148.34;5055092;28;20584;-71
2022/04/12 08:47:37;;;;;;;14.30;10.57;;;;;;;11.23;76.59;101153.03;5053200;28;20028;-71
2022/04/12 08:50:05;;;;;;;12.15;9.25;;;;;;;11.34;76.19;101147.25;5025950;28;20056;-71
2022/04/12 08:52:31;;;;;;;13.38;9.88;;;;;;;11.45;75.57;101146.78;5056618;28;20123;-71
2022/04/12 08:54:57;;;;;;;12.57;9.65;;;;;;;11.55;74.78;101142.75;5034997;28;20144;-74
2022/04/12 08:57:22;;;;;;;13.75;9.30;;;;;;;11.64;74.30;101133.53;5020599;28;20057;-74
2022/04/12 08:59:48;;;;;;;14.90;9.70;;;;;;;11.71;73.65;101132.31;5037657;28;20037;-74
2022/04/12 09:02:13;;;;;;;13.10;9.13;;;;;;;11.80;73.83;101126.63;5038019;28;20103;-74
2022/04/12 09:04:39;;;;;;;14.25;9.40;;;;;;;11.93;73.42;101134.03;5055534;28;20177;-74
2022/04/12 09:07:09;;;;;;;16.02;9.88;;;;;;;12.06;72.94;101119.28;5056001;28;20438;-74
2022/04/12 09:09:35;;;;;;;11.65;9.57;;;;;;;12.19;72.63;101113.34;5054004;28;20045;-74
2022/04/12 09:12:03;;;;;;;13.68;9.60;;;;;;;12.29;71.89;101117.31;5036800;28;20052;-73
2022/04/12 09:14:37;;;;;;;13.45;9.20;;;;;;;12.40;71.69;101116.78;5055441;28;20135;-74
2022/04/12 09:17:08;;;;;;;12.52;9.73;;;;;;;12.54;71.52;101109.94;5054972;28;20040;-74
2022/04/12 09:19:42;;;;;;;13.77;9.80;;;;;;;12.70;70.93;101115.34;5024245;28;20079;-73
2022/04/12 09:22:19;;;;;;;12.40;9.10;;;;;;;12.76;69.80;101109.72;5037660;28;20426;-72
2022/04/12 09:24:46;;;;;;;12.45;9.45;;;;;;;12.79;70.32;101117.53;5021168;28;20028;-73
2022/04/12 09:27:22;;;;;;;12.05;9.02;;;;;;;12.87;70.63;101120.66;5053200;28;20028;-73
2022/04/12 09:29:57;;;;;;;12.43;9.32;;;;;;;13.00;70.69;101114.72;5035762;28;20064;-73
2022/04/12 09:32:26;;;;;;;14.70;9.20;;;;;;;13.10;69.98;101115.97;5055707;28;20053;-72
2022/04/12 09:34:53;;;;;;;12.48;9.23;;;;;;;13.17;69.99;101130.66;5056700;28;20360;-70
2022/04/12 09:37:27;;;;;;;17.85;10.40;;;;;;;13.19;70.73;101122.63;5055044;28;20081;-70
2022/04/12 09:39:58;;;;;;;15.88;10.02;;;;;;;13.23;69.85;101125.97;5037705;28;20020;-72
2022/04/12 09:42:42;;;;;;;12.30;9.13;;;;;;;13.29;69.29;101126.50;5054457;28;20112;-70
2022/04/12 09:45:10;;;;;;;13.18;9.30;;;;;;;13.39;69.81;101121.53;5054307;28;20058;-72
2022/04/12 09:47:36;;;;;;;13.73;9.85;;;;;;;13.50;69.69;101118.34;5023608;28;20028;-76
2022/04/12 09:50:02;;;;;;;12.73;9.13;;;;;;;13.62;69.57;101110.66;5023031;28;20039;-76
2022/04/12 09:52:28;;;;;;;13.90;9.50;;;;;;;13.75;69.70;101102.84;5055631;28;20044;-76
2022/04/12 09:54:56;;;;;;;13.13;9.85;;;;;;;13.88;68.62;101097.72;5037224;28;20032;-76
2022/04/12 09:57:22;;;;;;;12.30;8.75;;;;;;;13.98;68.01;101098.91;5037345;28;20041;-75
2022/04/12 09:59:48;;;;;;;12.07;9.10;;;;;;;14.03;68.14;101088.88;5039092;28;20043;-76
2022/04/12 10:02:14;;;;;;;13.75;8.90;;;;;;;14.10;68.47;101084.06;5037236;28;20497;-76
2022/04/12 10:04:42;;;;;;;12.82;10.02;;;;;;;14.14;67.93;101080.28;5055252;28;20039;-77
2022/04/12 10:07:10;;;;;;;12.25;9.32;;;;;;;14.16;67.35;101069.56;5055074;28;20127;-76
2022/04/12 10:09:37;;;;;;;14.75;9.38;;;;;;;14.14;66.61;101059.00;5038776;28;20067;-76
2022/04/12 10:12:05;;;;;;;13.10;9.50;;;;;;;14.13;65.21;101079.41;5042491;28;20036;-76
2022/04/12 10:14:30;;;;;;;13.13;9.60;;;;;;;14.06;65.50;101067.41;5054561;28;20135;-76
2022/04/12 10:16:59;;;;;;;12.13;9.93;;;;;;;13.97;65.91;101066.16;5021798;28;20029;-76
2022/04/12 10:19:25;;;;;;;16.15;9.95;;;;;;;13.98;66.34;101059.00;5055525;28;20547;-76
2022/04/12 10:21:50;;;;;;;13.07;9.55;;;;;;;13.98;66.00;101064.31;5024865;28;20032;-76
2022/04/12 10:24:17;;;;;;;12.25;9.38;;;;;;;13.97;65.34;101063.47;5042863;28;20588;-76
2022/04/12 10:26:44;;;;;;;15.00;10.23;;;;;;;13.97;65.83;101058.16;5037766;28;20487;-76
2022/04/12 10:29:10;;;;;;;12.38;9.57;;;;;;;13.97;66.31;101063.47;5038005;28;20069;-77
2022/04/12 10:31:35;;;;;;;11.05;9.00;;;;;;;13.96;65.85;101052.91;5056591;28;20040;-76
2022/04/12 10:34:01;;;;;;;11.85;9.68;;;;;;;14.01;66.30;101048.19;5037737;28;20108;-76
2022/04/12 10:36:55;;;;;;;12.25;9.20;;;;;;;14.07;64.84;101053.19;5038881;28;20031;-76
2022/04/12 10:39:21;;;;;;;18.05;9.27;;;;;;;14.17;65.87;101044.66;5055233;28;20044;-79
2022/04/12 10:41:49;;;;;;;11.63;8.48;;;;;;;14.20;65.69;101042.66;5038024;28;20121;-79
2022/04/12 10:44:19;;;;;;;16.58;9.95;;;;;;;14.25;65.41;101045.06;5023579;28;21616;-80
2022/04/12 10:46:47;;;;;;;14.82;9.20;;;;;;;14.30;65.88;101043.00;5055209;28;20434;-80
2022/04/12 10:49:16;;;;;;;12.05;9.27;;;;;;;14.35;65.82;101046.25;5038823;28;20184;-79
2022/04/12 10:51:42;;;;;;;12.70;9.73;;;;;;;14.39;65.37;101041.59;5038514;28;20113;-79
2022/04/12 10:54:28;;;;;;;22.17;9.85;;;;;;;14.41;64.22;101039.69;5055686;28;20032;-79
2022/04/12 10:57:18;;;;;;;10.95;8.48;;;;;;;14.49;64.22;101044.59;5035227;28;20121;-79
2022/04/12 11:00:13;;;;;;;10.50;8.65;;;;;;;14.58;64.39;101035.16;5035602;28;20562;-78
2022/04/12 11:02:51;;;;;;;13.43;9.07;;;;;;;14.64;64.76;101038.34;5018695;28;20074;-80
2022/04/12 11:05:32;;;;;;;12.85;9.23;;;;;;;14.76;64.36;101052.75;5005880;28;20029;-79
2022/04/12 11:07:58;;;;;;;11.68;8.98;;;;;;;14.80;64.70;101046.31;5030038;28;20030;-79
2022/04/12 11:10:24;;;;;;;11.90;8.73;;;;;;;14.85;64.89;101051.34;5035621;28;20036;-78
2022/04/12 11:13:03;;;;;;;10.30;7.95;;;;;;;14.90;64.66;101048.41;5036141;28;20037;-81
2022/04/12 11:15:29;;;;;;;10.57;8.20;;;;;;;14.95;64.66;101041.00;5036595;28;20041;-76
2022/04/12 11:18:07;;;;;;;14.15;8.82;;;;;;;15.00;63.34;101036.25;5019468;28;20025;-76